sensor_id;sensor_type;location;lat;lon;timestamp;P1;durP1;ratioP1;P2;durP2;ratioP2
15006;SDS011;7599;50.748;13.142;2023-02-28T00:02:41;1.10;;;0.80;;
15006;SDS011;7599;50.748;13.142;2023-02-28T00:05:44;0.88;;;0.63;;
15006;SDS011;7599;50.748;13.142;2023-02-28T00:08:48;2.00;;;0.85;;
15006;SDS011;7599;50.748;13.142;2023-02-28T00:11:50;0.95;;;0.73;;
15006;SDS011;7599;50.748;13.142;2023-02-28T00:14:52;2.83;;;0.80;;
15006;SDS011;7599;50.748;13.142;2023-02-28T00:17:55;2.05;;;1.00;;
15006;SDS011;7599;50.748;13.142;2023-02-28T00:20:57;1.02;;;0.82;;
15006;SDS011;7599;50.748;13.142;2023-02-28T00:24:01;1.63;;;0.93;;
15006;SDS011;7599;50.748;13.142;2023-02-28T00:27:04;1.48;;;0.73;;
15006;SDS011;7599;50.748;13.142;2023-02-28T00:30:07;1.73;;;1.08;;
15006;SDS011;7599;50.748;13.142;2023-02-28T00:33:13;1.02;;;0.73;;
15006;SDS011;7599;50.748;13.142;2023-02-28T00:36:15;1.05;;;0.82;;
15006;SDS011;7599;50.748;13.142;2023-02-28T00:39:19;1.40;;;0.82;;
15006;SDS011;7599;50.748;13.142;2023-02-28T00:42:21;1.23;;;0.80;;
15006;SDS011;7599;50.748;13.142;2023-02-28T00:45:24;1.35;;;0.90;;
15006;SDS011;7599;50.748;13.142;2023-02-28T00:48:26;1.15;;;0.70;;
15006;SDS011;7599;50.748;13.142;2023-02-28T00:51:29;2.00;;;1.38;;
15006;SDS011;7599;50.748;13.142;2023-02-28T00:54:33;1.02;;;0.70;;
15006;SDS011;7599;50.748;13.142;2023-02-28T00:57:36;1.38;;;0.82;;
15006;SDS011;7599;50.748;13.142;2023-02-28T01:00:38;1.90;;;0.95;;
15006;SDS011;7599;50.748;13.142;2023-02-28T01:03:41;1.15;;;0.65;;
15006;SDS011;7599;50.748;13.142;2023-02-28T01:06:43;1.25;;;0.60;;
15006;SDS011;7599;50.748;13.142;2023-02-28T01:09:47;2.35;;;1.15;;
15006;SDS011;7599;50.748;13.142;2023-02-28T01:12:49;1.58;;;0.75;;
15006;SDS011;7599;50.748;13.142;2023-02-28T01:15:53;1.25;;;0.60;;
15006;SDS011;7599;50.748;13.142;2023-02-28T01:18:57;1.70;;;1.02;;
15006;SDS011;7599;50.748;13.142;2023-02-28T01:22:01;1.00;;;0.77;;
15006;SDS011;7599;50.748;13.142;2023-02-28T01:25:06;1.15;;;0.80;;
15006;SDS011;7599;50.748;13.142;2023-02-28T01:28:09;1.55;;;0.73;;
15006;SDS011;7599;50.748;13.142;2023-02-28T01:31:11;0.85;;;0.52;;
15006;SDS011;7599;50.748;13.142;2023-02-28T01:34:14;2.05;;;0.93;;
15006;SDS011;7599;50.748;13.142;2023-02-28T01:37:17;1.25;;;0.82;;
15006;SDS011;7599;50.748;13.142;2023-02-28T01:40:20;1.05;;;0.68;;
15006;SDS011;7599;50.748;13.142;2023-02-28T01:43:25;0.82;;;0.50;;
15006;SDS011;7599;50.748;13.142;2023-02-28T01:46:29;1.27;;;0.80;;
15006;SDS011;7599;50.748;13.142;2023-02-28T01:49:32;1.23;;;0.75;;
15006;SDS011;7599;50.748;13.142;2023-02-28T01:52:35;1.23;;;0.73;;
15006;SDS011;7599;50.748;13.142;2023-02-28T01:55:39;1.10;;;0.70;;
15006;SDS011;7599;50.748;13.142;2023-02-28T01:58:43;1.08;;;0.63;;
15006;SDS011;7599;50.748;13.142;2023-02-28T02:01:45;0.95;;;0.65;;
15006;SDS011;7599;50.748;13.142;2023-02-28T02:04:50;0.90;;;0.70;;
15006;SDS011;7599;50.748;13.142;2023-02-28T02:07:56;1.48;;;0.70;;
15006;SDS011;7599;50.748;13.142;2023-02-28T02:11:04;1.23;;;0.88;;
15006;SDS011;7599;50.748;13.142;2023-02-28T02:14:30;1.52;;;0.75;;
15006;SDS011;7599;50.748;13.142;2023-02-28T02:17:43;1.35;;;0.80;;
15006;SDS011;7599;50.748;13.142;2023-02-28T02:24:45;1.33;;;0.85;;
15006;SDS011;7599;50.748;13.142;2023-02-28T02:31:20;0.98;;;0.60;;
15006;SDS011;7599;50.748;13.142;2023-02-28T02:34:48;0.90;;;0.68;;
15006;SDS011;7599;50.748;13.142;2023-02-28T02:37:59;0.98;;;0.70;;
15006;SDS011;7599;50.748;13.142;2023-02-28T02:41:12;0.70;;;0.50;;
15006;SDS011;7599;50.748;13.142;2023-02-28T02:44:20;1.38;;;0.80;;
15006;SDS011;7599;50.748;13.142;2023-02-28T02:47:26;0.95;;;0.68;;
15006;SDS011;7599;50.748;13.142;2023-02-28T02:50:33;0.88;;;0.60;;
15006;SDS011;7599;50.748;13.142;2023-02-28T02:53:40;0.50;;;0.50;;
15006;SDS011;7599;50.748;13.142;2023-02-28T02:56:47;2.03;;;0.82;;
15006;SDS011;7599;50.748;13.142;2023-02-28T02:59:51;1.25;;;0.60;;
15006;SDS011;7599;50.748;13.142;2023-02-28T03:02:58;1.23;;;0.70;;
15006;SDS011;7599;50.748;13.142;2023-02-28T03:06:04;1.02;;;0.75;;
15006;SDS011;7599;50.748;13.142;2023-02-28T03:09:07;0.77;;;0.60;;
15006;SDS011;7599;50.748;13.142;2023-02-28T03:12:10;1.10;;;0.70;;
15006;SDS011;7599;50.748;13.142;2023-02-28T03:15:16;1.15;;;0.80;;
15006;SDS011;7599;50.748;13.142;2023-02-28T03:18:28;1.13;;;0.60;;
15006;SDS011;7599;50.748;13.142;2023-02-28T03:21:42;1.05;;;0.60;;
15006;SDS011;7599;50.748;13.142;2023-02-28T03:24:54;1.70;;;0.95;;
15006;SDS011;7599;50.748;13.142;2023-02-28T03:28:05;1.10;;;0.60;;
15006;SDS011;7599;50.748;13.142;2023-02-28T03:31:17;0.88;;;0.75;;
15006;SDS011;7599;50.748;13.142;2023-02-28T03:34:24;0.85;;;0.73;;
15006;SDS011;7599;50.748;13.142;2023-02-28T03:37:32;0.90;;;0.82;;
15006;SDS011;7599;50.748;13.142;2023-02-28T03:40:39;1.20;;;0.70;;
15006;SDS011;7599;50.748;13.142;2023-02-28T03:43:48;1.00;;;0.73;;
15006;SDS011;7599;50.748;13.142;2023-02-28T03:46:56;0.95;;;0.70;;
15006;SDS011;7599;50.748;13.142;2023-02-28T03:50:03;1.13;;;0.77;;
15006;SDS011;7599;50.748;13.142;2023-02-28T03:53:13;1.20;;;0.73;;
15006;SDS011;7599;50.748;13.142;2023-02-28T03:56:18;0.75;;;0.52;;
15006;SDS011;7599;50.748;13.142;2023-02-28T03:59:25;0.75;;;0.55;;
15006;SDS011;7599;50.748;13.142;2023-02-28T04:02:30;1.67;;;0.70;;
15006;SDS011;7599;50.748;13.142;2023-02-28T04:05:33;1.40;;;0.88;;
15006;SDS011;7599;50.748;13.142;2023-02-28T04:08:50;1.38;;;0.73;;
15006;SDS011;7599;50.748;13.142;2023-02-28T04:11:54;1.00;;;0.80;;
15006;SDS011;7599;50.748;13.142;2023-02-28T04:14:57;0.85;;;0.52;;
15006;SDS011;7599;50.748;13.142;2023-02-28T04:18:00;0.88;;;0.65;;
15006;SDS011;7599;50.748;13.142;2023-02-28T04:21:02;1.38;;;0.93;;
15006;SDS011;7599;50.748;13.142;2023-02-28T04:24:06;0.60;;;0.50;;
15006;SDS011;7599;50.748;13.142;2023-02-28T04:27:09;0.73;;;0.68;;
15006;SDS011;7599;50.748;13.142;2023-02-28T04:30:12;1.00;;;0.77;;
15006;SDS011;7599;50.748;13.142;2023-02-28T04:33:15;0.52;;;0.45;;
15006;SDS011;7599;50.748;13.142;2023-02-28T04:36:17;1.08;;;0.75;;
15006;SDS011;7599;50.748;13.142;2023-02-28T04:39:21;0.73;;;0.73;;
15006;SDS011;7599;50.748;13.142;2023-02-28T04:42:24;1.05;;;0.73;;
15006;SDS011;7599;50.748;13.142;2023-02-28T04:45:26;0.90;;;0.75;;
15006;SDS011;7599;50.748;13.142;2023-02-28T04:48:32;1.08;;;0.73;;
15006;SDS011;7599;50.748;13.142;2023-02-28T04:51:36;1.00;;;0.75;;
15006;SDS011;7599;50.748;13.142;2023-02-28T04:54:39;0.85;;;0.60;;
15006;SDS011;7599;50.748;13.142;2023-02-28T04:57:42;1.27;;;0.60;;
15006;SDS011;7599;50.748;13.142;2023-02-28T05:00:44;0.95;;;0.63;;
15006;SDS011;7599;50.748;13.142;2023-02-28T05:03:47;1.38;;;0.85;;
15006;SDS011;7599;50.748;13.142;2023-02-28T05:06:50;0.60;;;0.50;;
15006;SDS011;7599;50.748;13.142;2023-02-28T05:09:53;0.75;;;0.45;;
15006;SDS011;7599;50.748;13.142;2023-02-28T05:12:56;1.50;;;0.75;;
15006;SDS011;7599;50.748;13.142;2023-02-28T05:15:58;1.25;;;0.80;;
15006;SDS011;7599;50.748;13.142;2023-02-28T05:19:01;1.00;;;0.63;;
15006;SDS011;7599;50.748;13.142;2023-02-28T05:22:04;0.65;;;0.60;;
15006;SDS011;7599;50.748;13.142;2023-02-28T05:25:08;0.82;;;0.55;;
15006;SDS011;7599;50.748;13.142;2023-02-28T05:28:13;0.95;;;0.75;;
15006;SDS011;7599;50.748;13.142;2023-02-28T05:31:16;1.33;;;0.93;;
15006;SDS011;7599;50.748;13.142;2023-02-28T05:34:18;0.77;;;0.60;;
15006;SDS011;7599;50.748;13.142;2023-02-28T05:37:21;1.17;;;0.73;;
15006;SDS011;7599;50.748;13.142;2023-02-28T05:40:24;0.90;;;0.70;;
15006;SDS011;7599;50.748;13.142;2023-02-28T05:43:27;1.02;;;0.63;;
15006;SDS011;7599;50.748;13.142;2023-02-28T05:46:29;0.80;;;0.60;;
15006;SDS011;7599;50.748;13.142;2023-02-28T05:49:32;0.75;;;0.52;;
15006;SDS011;7599;50.748;13.142;2023-02-28T05:52:34;1.38;;;0.80;;
15006;SDS011;7599;50.748;13.142;2023-02-28T05:55:38;1.75;;;0.85;;
15006;SDS011;7599;50.748;13.142;2023-02-28T05:58:42;1.02;;;0.63;;
15006;SDS011;7599;50.748;13.142;2023-02-28T06:01:45;1.50;;;0.80;;
15006;SDS011;7599;50.748;13.142;2023-02-28T06:04:49;0.63;;;0.50;;
15006;SDS011;7599;50.748;13.142;2023-02-28T06:07:51;2.00;;;0.80;;
15006;SDS011;7599;50.748;13.142;2023-02-28T06:10:55;1.23;;;0.75;;
15006;SDS011;7599;50.748;13.142;2023-02-28T06:13:58;0.98;;;0.73;;
15006;SDS011;7599;50.748;13.142;2023-02-28T06:17:02;0.85;;;0.70;;
15006;SDS011;7599;50.748;13.142;2023-02-28T06:20:06;1.08;;;0.68;;
15006;SDS011;7599;50.748;13.142;2023-02-28T06:23:09;1.95;;;0.57;;
15006;SDS011;7599;50.748;13.142;2023-02-28T06:26:13;1.00;;;0.85;;
15006;SDS011;7599;50.748;13.142;2023-02-28T06:29:16;1.45;;;0.70;;
15006;SDS011;7599;50.748;13.142;2023-02-28T06:32:19;1.00;;;0.73;;
15006;SDS011;7599;50.748;13.142;2023-02-28T06:35:21;2.03;;;1.13;;
15006;SDS011;7599;50.748;13.142;2023-02-28T06:38:24;1.58;;;0.77;;
15006;SDS011;7599;50.748;13.142;2023-02-28T06:41:28;1.77;;;0.80;;
15006;SDS011;7599;50.748;13.142;2023-02-28T06:44:41;0.68;;;0.60;;
15006;SDS011;7599;50.748;13.142;2023-02-28T06:47:45;1.58;;;0.80;;
15006;SDS011;7599;50.748;13.142;2023-02-28T06:51:00;1.40;;;1.02;;
15006;SDS011;7599;50.748;13.142;2023-02-28T06:54:04;0.63;;;0.57;;
15006;SDS011;7599;50.748;13.142;2023-02-28T06:57:11;1.40;;;0.77;;
15006;SDS011;7599;50.748;13.142;2023-02-28T07:00:14;0.85;;;0.60;;
15006;SDS011;7599;50.748;13.142;2023-02-28T07:03:17;1.40;;;0.75;;
15006;SDS011;7599;50.748;13.142;2023-02-28T07:06:20;1.48;;;0.65;;
15006;SDS011;7599;50.748;13.142;2023-02-28T07:09:23;1.13;;;0.63;;
15006;SDS011;7599;50.748;13.142;2023-02-28T07:12:32;1.08;;;0.75;;
15006;SDS011;7599;50.748;13.142;2023-02-28T07:15:34;1.73;;;0.93;;
15006;SDS011;7599;50.748;13.142;2023-02-28T07:18:41;3.10;;;1.17;;
15006;SDS011;7599;50.748;13.142;2023-02-28T07:21:43;2.67;;;1.25;;
15006;SDS011;7599;50.748;13.142;2023-02-28T07:24:46;1.25;;;0.88;;
15006;SDS011;7599;50.748;13.142;2023-02-28T07:27:50;1.77;;;1.05;;
15006;SDS011;7599;50.748;13.142;2023-02-28T07:30:52;2.53;;;0.77;;
15006;SDS011;7599;50.748;13.142;2023-02-28T07:33:55;1.90;;;0.98;;
15006;SDS011;7599;50.748;13.142;2023-02-28T07:36:57;7.53;;;0.98;;
15006;SDS011;7599;50.748;13.142;2023-02-28T07:40:00;1.23;;;0.65;;
15006;SDS011;7599;50.748;13.142;2023-02-28T07:43:04;1.75;;;0.88;;
15006;SDS011;7599;50.748;13.142;2023-02-28T07:46:08;1.45;;;0.82;;
15006;SDS011;7599;50.748;13.142;2023-02-28T07:49:11;1.70;;;0.80;;
15006;SDS011;7599;50.748;13.142;2023-02-28T07:52:14;2.58;;;0.95;;
15006;SDS011;7599;50.748;13.142;2023-02-28T07:55:16;2.38;;;1.30;;
15006;SDS011;7599;50.748;13.142;2023-02-28T07:58:20;2.97;;;1.63;;
15006;SDS011;7599;50.748;13.142;2023-02-28T08:01:22;3.30;;;2.05;;
15006;SDS011;7599;50.748;13.142;2023-02-28T08:04:25;1.75;;;1.38;;
15006;SDS011;7599;50.748;13.142;2023-02-28T08:07:28;2.72;;;1.85;;
15006;SDS011;7599;50.748;13.142;2023-02-28T08:10:31;3.47;;;1.85;;
15006;SDS011;7599;50.748;13.142;2023-02-28T08:13:35;1.52;;;1.38;;
15006;SDS011;7599;50.748;13.142;2023-02-28T08:16:37;2.10;;;1.38;;
15006;SDS011;7599;50.748;13.142;2023-02-28T08:19:40;2.22;;;1.80;;
15006;SDS011;7599;50.748;13.142;2023-02-28T08:22:42;1.85;;;1.65;;
15006;SDS011;7599;50.748;13.142;2023-02-28T08:25:52;2.13;;;1.55;;
15006;SDS011;7599;50.748;13.142;2023-02-28T08:28:56;2.17;;;1.73;;
15006;SDS011;7599;50.748;13.142;2023-02-28T08:32:01;2.05;;;1.58;;
15006;SDS011;7599;50.748;13.142;2023-02-28T08:35:04;3.10;;;1.67;;
15006;SDS011;7599;50.748;13.142;2023-02-28T08:38:06;2.53;;;1.48;;
15006;SDS011;7599;50.748;13.142;2023-02-28T08:44:14;2.53;;;1.58;;
15006;SDS011;7599;50.748;13.142;2023-02-28T08:47:17;1.92;;;1.70;;
15006;SDS011;7599;50.748;13.142;2023-02-28T08:50:20;1.70;;;1.23;;
15006;SDS011;7599;50.748;13.142;2023-02-28T08:53:23;2.22;;;1.65;;
15006;SDS011;7599;50.748;13.142;2023-02-28T08:56:26;2.05;;;1.40;;
15006;SDS011;7599;50.748;13.142;2023-02-28T08:59:30;4.18;;;1.55;;
15006;SDS011;7599;50.748;13.142;2023-02-28T09:02:33;2.40;;;1.58;;
15006;SDS011;7599;50.748;13.142;2023-02-28T09:05:36;2.90;;;1.65;;
15006;SDS011;7599;50.748;13.142;2023-02-28T09:08:39;2.90;;;0.98;;
15006;SDS011;7599;50.748;13.142;2023-02-28T09:11:42;2.55;;;1.30;;
15006;SDS011;7599;50.748;13.142;2023-02-28T09:14:46;2.90;;;1.02;;
15006;SDS011;7599;50.748;13.142;2023-02-28T09:17:48;2.53;;;0.73;;
15006;SDS011;7599;50.748;13.142;2023-02-28T09:20:51;1.85;;;0.75;;
15006;SDS011;7599;50.748;13.142;2023-02-28T09:23:53;2.47;;;0.73;;
15006;SDS011;7599;50.748;13.142;2023-02-28T09:26:57;2.15;;;0.55;;
15006;SDS011;7599;50.748;13.142;2023-02-28T09:30:08;1.95;;;1.00;;
15006;SDS011;7599;50.748;13.142;2023-02-28T09:33:11;2.53;;;0.82;;
15006;SDS011;7599;50.748;13.142;2023-02-28T09:36:14;2.08;;;0.90;;
15006;SDS011;7599;50.748;13.142;2023-02-28T09:39:17;1.70;;;0.85;;
15006;SDS011;7599;50.748;13.142;2023-02-28T09:42:21;1.40;;;0.90;;
15006;SDS011;7599;50.748;13.142;2023-02-28T09:45:30;2.42;;;0.85;;
15006;SDS011;7599;50.748;13.142;2023-02-28T09:48:39;2.65;;;1.08;;
15006;SDS011;7599;50.748;13.142;2023-02-28T09:51:46;1.42;;;0.75;;
15006;SDS011;7599;50.748;13.142;2023-02-28T09:54:52;1.50;;;0.73;;
15006;SDS011;7599;50.748;13.142;2023-02-28T09:57:55;2.40;;;0.82;;
15006;SDS011;7599;50.748;13.142;2023-02-28T10:01:03;1.45;;;0.65;;
15006;SDS011;7599;50.748;13.142;2023-02-28T10:04:14;2.65;;;1.15;;
15006;SDS011;7599;50.748;13.142;2023-02-28T10:07:32;1.95;;;1.17;;
15006;SDS011;7599;50.748;13.142;2023-02-28T10:10:49;1.95;;;1.00;;
15006;SDS011;7599;50.748;13.142;2023-02-28T10:13:58;2.53;;;0.95;;
15006;SDS011;7599;50.748;13.142;2023-02-28T10:17:08;2.50;;;1.17;;
15006;SDS011;7599;50.748;13.142;2023-02-28T10:20:17;2.58;;;1.27;;
15006;SDS011;7599;50.748;13.142;2023-02-28T10:23:24;2.72;;;1.60;;
15006;SDS011;7599;50.748;13.142;2023-02-28T10:26:29;2.35;;;1.25;;
15006;SDS011;7599;50.748;13.142;2023-02-28T10:29:33;3.17;;;1.00;;
15006;SDS011;7599;50.748;13.142;2023-02-28T10:32:38;2.00;;;1.05;;
15006;SDS011;7599;50.748;13.142;2023-02-28T10:35:41;2.63;;;1.08;;
15006;SDS011;7599;50.748;13.142;2023-02-28T10:38:44;3.40;;;0.98;;
15006;SDS011;7599;50.748;13.142;2023-02-28T10:41:48;3.63;;;1.10;;
15006;SDS011;7599;50.748;13.142;2023-02-28T10:45:02;3.33;;;1.13;;
15006;SDS011;7599;50.748;13.142;2023-02-28T10:48:27;1.67;;;1.00;;
15006;SDS011;7599;50.748;13.142;2023-02-28T10:51:35;1.23;;;0.70;;
15006;SDS011;7599;50.748;13.142;2023-02-28T10:54:39;3.17;;;1.17;;
15006;SDS011;7599;50.748;13.142;2023-02-28T10:57:42;2.63;;;1.25;;
15006;SDS011;7599;50.748;13.142;2023-02-28T11:00:44;1.65;;;0.75;;
15006;SDS011;7599;50.748;13.142;2023-02-28T11:03:53;1.98;;;1.05;;
15006;SDS011;7599;50.748;13.142;2023-02-28T11:07:06;1.67;;;0.80;;
15006;SDS011;7599;50.748;13.142;2023-02-28T11:10:31;2.03;;;0.95;;
15006;SDS011;7599;50.748;13.142;2023-02-28T11:13:54;2.20;;;1.23;;
15006;SDS011;7599;50.748;13.142;2023-02-28T11:17:50;2.45;;;1.02;;
15006;SDS011;7599;50.748;13.142;2023-02-28T11:20:37;1.30;;;0.75;;
15006;SDS011;7599;50.748;13.142;2023-02-28T11:23:41;2.40;;;1.02;;
15006;SDS011;7599;50.748;13.142;2023-02-28T11:26:45;1.58;;;0.98;;
15006;SDS011;7599;50.748;13.142;2023-02-28T11:29:49;1.83;;;0.75;;
15006;SDS011;7599;50.748;13.142;2023-02-28T11:32:52;2.10;;;1.05;;
15006;SDS011;7599;50.748;13.142;2023-02-28T11:36:19;1.67;;;0.88;;
15006;SDS011;7599;50.748;13.142;2023-02-28T11:39:26;2.35;;;0.82;;
15006;SDS011;7599;50.748;13.142;2023-02-28T11:42:33;3.35;;;1.30;;
15006;SDS011;7599;50.748;13.142;2023-02-28T11:45:54;3.67;;;1.00;;
15006;SDS011;7599;50.748;13.142;2023-02-28T11:49:13;2.25;;;0.95;;
15006;SDS011;7599;50.748;13.142;2023-02-28T11:52:36;3.72;;;1.35;;
15006;SDS011;7599;50.748;13.142;2023-02-28T11:58:54;2.42;;;0.80;;
15006;SDS011;7599;50.748;13.142;2023-02-28T12:02:17;2.75;;;1.13;;
15006;SDS011;7599;50.748;13.142;2023-02-28T12:05:27;2.90;;;1.27;;
15006;SDS011;7599;50.748;13.142;2023-02-28T12:08:42;2.40;;;1.05;;
15006;SDS011;7599;50.748;13.142;2023-02-28T12:11:51;2.67;;;0.88;;
15006;SDS011;7599;50.748;13.142;2023-02-28T12:15:01;3.58;;;1.40;;
15006;SDS011;7599;50.748;13.142;2023-02-28T12:18:32;3.55;;;1.38;;
15006;SDS011;7599;50.748;13.142;2023-02-28T12:21:48;1.75;;;1.05;;
15006;SDS011;7599;50.748;13.142;2023-02-28T12:25:18;3.55;;;1.20;;
15006;SDS011;7599;50.748;13.142;2023-02-28T12:28:27;1.90;;;1.08;;
15006;SDS011;7599;50.748;13.142;2023-02-28T12:34:41;1.52;;;0.85;;
15006;SDS011;7599;50.748;13.142;2023-02-28T12:37:47;2.30;;;1.23;;
15006;SDS011;7599;50.748;13.142;2023-02-28T12:40:56;2.45;;;0.90;;
15006;SDS011;7599;50.748;13.142;2023-02-28T12:44:03;1.42;;;0.85;;
15006;SDS011;7599;50.748;13.142;2023-02-28T12:47:10;2.83;;;0.85;;
15006;SDS011;7599;50.748;13.142;2023-02-28T12:50:17;2.22;;;1.02;;
15006;SDS011;7599;50.748;13.142;2023-02-28T12:53:22;2.33;;;1.15;;
15006;SDS011;7599;50.748;13.142;2023-02-28T12:56:33;1.50;;;1.02;;
15006;SDS011;7599;50.748;13.142;2023-02-28T12:59:40;2.75;;;1.00;;
15006;SDS011;7599;50.748;13.142;2023-02-28T13:06:05;2.25;;;0.98;;
15006;SDS011;7599;50.748;13.142;2023-02-28T13:09:16;2.50;;;0.90;;
15006;SDS011;7599;50.748;13.142;2023-02-28T13:12:21;3.10;;;1.00;;
15006;SDS011;7599;50.748;13.142;2023-02-28T13:15:25;1.80;;;0.73;;
15006;SDS011;7599;50.748;13.142;2023-02-28T13:18:31;1.65;;;0.95;;
15006;SDS011;7599;50.748;13.142;2023-02-28T13:21:42;2.58;;;1.42;;
15006;SDS011;7599;50.748;13.142;2023-02-28T13:24:46;1.77;;;1.00;;
15006;SDS011;7599;50.748;13.142;2023-02-28T13:27:52;2.50;;;1.20;;
15006;SDS011;7599;50.748;13.142;2023-02-28T13:31:04;1.85;;;0.95;;
15006;SDS011;7599;50.748;13.142;2023-02-28T13:34:12;1.58;;;0.95;;
15006;SDS011;7599;50.748;13.142;2023-02-28T13:37:32;3.53;;;1.13;;
15006;SDS011;7599;50.748;13.142;2023-02-28T13:40:37;1.85;;;0.95;;
15006;SDS011;7599;50.748;13.142;2023-02-28T13:50:35;2.33;;;1.05;;
15006;SDS011;7599;50.748;13.142;2023-02-28T13:53:43;1.75;;;0.60;;
15006;SDS011;7599;50.748;13.142;2023-02-28T13:57:05;1.80;;;0.93;;
15006;SDS011;7599;50.748;13.142;2023-02-28T14:00:20;1.77;;;0.95;;
15006;SDS011;7599;50.748;13.142;2023-02-28T14:03:34;2.67;;;0.90;;
15006;SDS011;7599;50.748;13.142;2023-02-28T14:06:46;1.83;;;1.02;;
15006;SDS011;7599;50.748;13.142;2023-02-28T14:09:54;1.85;;;0.85;;
15006;SDS011;7599;50.748;13.142;2023-02-28T14:13:02;3.28;;;1.23;;
15006;SDS011;7599;50.748;13.142;2023-02-28T14:16:16;2.95;;;1.00;;
15006;SDS011;7599;50.748;13.142;2023-02-28T14:19:23;2.72;;;1.00;;
15006;SDS011;7599;50.748;13.142;2023-02-28T14:22:41;2.85;;;1.05;;
15006;SDS011;7599;50.748;13.142;2023-02-28T14:25:59;1.67;;;0.65;;
15006;SDS011;7599;50.748;13.142;2023-02-28T14:29:12;3.00;;;0.77;;
15006;SDS011;7599;50.748;13.142;2023-02-28T14:32:35;2.53;;;1.13;;
15006;SDS011;7599;50.748;13.142;2023-02-28T14:35:46;2.33;;;1.05;;
15006;SDS011;7599;50.748;13.142;2023-02-28T14:38:59;1.75;;;0.73;;
15006;SDS011;7599;50.748;13.142;2023-02-28T14:45:30;1.60;;;1.00;;
15006;SDS011;7599;50.748;13.142;2023-02-28T14:48:35;2.33;;;1.13;;
15006;SDS011;7599;50.748;13.142;2023-02-28T14:51:40;1.60;;;0.80;;
15006;SDS011;7599;50.748;13.142;2023-02-28T14:54:42;1.77;;;0.65;;
15006;SDS011;7599;50.748;13.142;2023-02-28T14:57:50;2.28;;;0.90;;
15006;SDS011;7599;50.748;13.142;2023-02-28T15:00:55;1.42;;;1.05;;
15006;SDS011;7599;50.748;13.142;2023-02-28T15:04:01;2.10;;;0.82;;
15006;SDS011;7599;50.748;13.142;2023-02-28T15:07:09;1.92;;;0.93;;
15006;SDS011;7599;50.748;13.142;2023-02-28T15:10:17;2.13;;;0.90;;
15006;SDS011;7599;50.748;13.142;2023-02-28T15:13:21;1.95;;;0.95;;
15006;SDS011;7599;50.748;13.142;2023-02-28T15:16:25;1.73;;;1.05;;
15006;SDS011;7599;50.748;13.142;2023-02-28T15:19:36;1.63;;;0.93;;
15006;SDS011;7599;50.748;13.142;2023-02-28T15:22:44;1.70;;;1.02;;
15006;SDS011;7599;50.748;13.142;2023-02-28T15:25:48;1.65;;;0.82;;
15006;SDS011;7599;50.748;13.142;2023-02-28T15:28:55;2.30;;;1.42;;
15006;SDS011;7599;50.748;13.142;2023-02-28T15:32:01;2.55;;;1.33;;
15006;SDS011;7599;50.748;13.142;2023-02-28T15:38:33;2.42;;;0.82;;
15006;SDS011;7599;50.748;13.142;2023-02-28T15:41:37;1.85;;;1.02;;
15006;SDS011;7599;50.748;13.142;2023-02-28T15:44:40;1.58;;;0.90;;
15006;SDS011;7599;50.748;13.142;2023-02-28T15:47:44;1.60;;;1.05;;
15006;SDS011;7599;50.748;13.142;2023-02-28T15:50:50;1.40;;;0.77;;
15006;SDS011;7599;50.748;13.142;2023-02-28T15:53:55;1.77;;;1.45;;
15006;SDS011;7599;50.748;13.142;2023-02-28T15:57:03;2.47;;;1.02;;
15006;SDS011;7599;50.748;13.142;2023-02-28T16:00:10;2.10;;;0.98;;
15006;SDS011;7599;50.748;13.142;2023-02-28T16:03:24;6.50;;;2.17;;
15006;SDS011;7599;50.748;13.142;2023-02-28T16:06:40;5.38;;;1.73;;
15006;SDS011;7599;50.748;13.142;2023-02-28T16:09:43;3.83;;;1.45;;
15006;SDS011;7599;50.748;13.142;2023-02-28T16:12:46;2.92;;;1.63;;
15006;SDS011;7599;50.748;13.142;2023-02-28T16:15:48;2.75;;;1.35;;
15006;SDS011;7599;50.748;13.142;2023-02-28T16:18:52;3.78;;;1.50;;
15006;SDS011;7599;50.748;13.142;2023-02-28T16:21:57;4.60;;;1.75;;
15006;SDS011;7599;50.748;13.142;2023-02-28T16:24:59;3.92;;;1.40;;
15006;SDS011;7599;50.748;13.142;2023-02-28T16:28:06;2.67;;;1.08;;
15006;SDS011;7599;50.748;13.142;2023-02-28T16:31:14;3.65;;;1.77;;
15006;SDS011;7599;50.748;13.142;2023-02-28T16:34:17;3.10;;;1.27;;
15006;SDS011;7599;50.748;13.142;2023-02-28T16:37:21;3.88;;;1.55;;
15006;SDS011;7599;50.748;13.142;2023-02-28T16:40:24;3.47;;;1.27;;
15006;SDS011;7599;50.748;13.142;2023-02-28T16:43:29;3.45;;;1.15;;
15006;SDS011;7599;50.748;13.142;2023-02-28T16:46:33;2.80;;;1.25;;
15006;SDS011;7599;50.748;13.142;2023-02-28T16:49:37;4.45;;;1.88;;
15006;SDS011;7599;50.748;13.142;2023-02-28T16:52:42;3.35;;;1.50;;
15006;SDS011;7599;50.748;13.142;2023-02-28T16:55:44;4.60;;;1.50;;
15006;SDS011;7599;50.748;13.142;2023-02-28T16:58:48;4.72;;;1.50;;
15006;SDS011;7599;50.748;13.142;2023-02-28T17:01:53;3.08;;;1.48;;
15006;SDS011;7599;50.748;13.142;2023-02-28T17:04:57;2.90;;;1.27;;
15006;SDS011;7599;50.748;13.142;2023-02-28T17:08:01;3.55;;;1.98;;
15006;SDS011;7599;50.748;13.142;2023-02-28T17:11:04;4.55;;;1.60;;
15006;SDS011;7599;50.748;13.142;2023-02-28T17:14:06;3.67;;;1.70;;
15006;SDS011;7599;50.748;13.142;2023-02-28T17:17:09;3.22;;;1.40;;
15006;SDS011;7599;50.748;13.142;2023-02-28T17:20:19;2.47;;;1.17;;
15006;SDS011;7599;50.748;13.142;2023-02-28T17:23:25;2.10;;;1.23;;
15006;SDS011;7599;50.748;13.142;2023-02-28T17:26:28;3.53;;;1.15;;
15006;SDS011;7599;50.748;13.142;2023-02-28T17:32:33;3.08;;;1.35;;
15006;SDS011;7599;50.748;13.142;2023-02-28T17:35:36;3.17;;;1.30;;
15006;SDS011;7599;50.748;13.142;2023-02-28T17:38:39;3.10;;;1.50;;
15006;SDS011;7599;50.748;13.142;2023-02-28T17:41:42;3.08;;;1.13;;
15006;SDS011;7599;50.748;13.142;2023-02-28T17:44:44;3.10;;;1.45;;
15006;SDS011;7599;50.748;13.142;2023-02-28T17:47:48;3.22;;;1.25;;
15006;SDS011;7599;50.748;13.142;2023-02-28T17:50:52;2.78;;;1.17;;
15006;SDS011;7599;50.748;13.142;2023-02-28T17:53:56;4.10;;;1.60;;
15006;SDS011;7599;50.748;13.142;2023-02-28T17:57:00;2.65;;;1.23;;
15006;SDS011;7599;50.748;13.142;2023-02-28T18:00:04;3.05;;;1.30;;
15006;SDS011;7599;50.748;13.142;2023-02-28T18:03:07;3.10;;;1.20;;
15006;SDS011;7599;50.748;13.142;2023-02-28T18:06:13;3.88;;;1.48;;
15006;SDS011;7599;50.748;13.142;2023-02-28T18:09:21;4.15;;;1.33;;
15006;SDS011;7599;50.748;13.142;2023-02-28T18:12:24;3.85;;;1.23;;
15006;SDS011;7599;50.748;13.142;2023-02-28T18:15:26;3.25;;;1.50;;
15006;SDS011;7599;50.748;13.142;2023-02-28T18:18:29;3.95;;;1.73;;
15006;SDS011;7599;50.748;13.142;2023-02-28T18:21:31;2.90;;;1.40;;
15006;SDS011;7599;50.748;13.142;2023-02-28T18:24:35;2.85;;;1.27;;
15006;SDS011;7599;50.748;13.142;2023-02-28T18:27:38;2.78;;;1.20;;
15006;SDS011;7599;50.748;13.142;2023-02-28T18:30:40;2.70;;;1.50;;
15006;SDS011;7599;50.748;13.142;2023-02-28T18:33:43;2.50;;;1.15;;
15006;SDS011;7599;50.748;13.142;2023-02-28T18:36:48;2.88;;;1.00;;
15006;SDS011;7599;50.748;13.142;2023-02-28T18:39:53;2.63;;;1.27;;
15006;SDS011;7599;50.748;13.142;2023-02-28T18:42:56;2.58;;;1.23;;
15006;SDS011;7599;50.748;13.142;2023-02-28T18:46:02;3.17;;;1.50;;
15006;SDS011;7599;50.748;13.142;2023-02-28T18:49:05;2.63;;;1.02;;
15006;SDS011;7599;50.748;13.142;2023-02-28T18:52:08;3.35;;;1.27;;
15006;SDS011;7599;50.748;13.142;2023-02-28T18:55:12;3.92;;;1.63;;
15006;SDS011;7599;50.748;13.142;2023-02-28T18:58:18;3.88;;;1.42;;
15006;SDS011;7599;50.748;13.142;2023-02-28T19:01:22;3.15;;;1.38;;
15006;SDS011;7599;50.748;13.142;2023-02-28T19:04:26;3.20;;;1.42;;
15006;SDS011;7599;50.748;13.142;2023-02-28T19:07:29;2.35;;;1.45;;
15006;SDS011;7599;50.748;13.142;2023-02-28T19:10:33;2.53;;;1.15;;
15006;SDS011;7599;50.748;13.142;2023-02-28T19:13:35;2.60;;;1.00;;
15006;SDS011;7599;50.748;13.142;2023-02-28T19:16:39;3.20;;;1.60;;
15006;SDS011;7599;50.748;13.142;2023-02-28T19:19:42;3.33;;;1.30;;